sensor_id;sensor_type;location;lat;lon;timestamp;P1;durP1;ratioP1;P2;durP2;ratioP2
8532;SDS011;4304;53.876;10.662;2023-07-24T00:00:36;3.90;;;1.58;;
8532;SDS011;4304;53.876;10.662;2023-07-24T00:03:03;4.30;;;2.08;;
8532;SDS011;4304;53.876;10.662;2023-07-24T00:05:28;4.45;;;1.95;;
8532;SDS011;4304;53.876;10.662;2023-07-24T00:07:54;3.58;;;1.88;;
8532;SDS011;4304;53.876;10.662;2023-07-24T00:10:19;3.90;;;1.70;;
8532;SDS011;4304;53.876;10.662;2023-07-24T00:12:44;3.90;;;1.55;;
8532;SDS011;4304;53.876;10.662;2023-07-24T00:15:10;7.40;;;2.10;;
8532;SDS011;4304;53.876;10.662;2023-07-24T00:17:35;3.40;;;1.75;;
8532;SDS011;4304;53.876;10.662;2023-07-24T00:20:00;3.65;;;1.20;;
8532;SDS011;4304;53.876;10.662;2023-07-24T00:22:26;6.82;;;2.35;;
8532;SDS011;4304;53.876;10.662;2023-07-24T00:24:51;3.45;;;1.52;;
8532;SDS011;4304;53.876;10.662;2023-07-24T00:27:16;4.35;;;1.92;;
8532;SDS011;4304;53.876;10.662;2023-07-24T00:29:42;3.78;;;1.77;;
8532;SDS011;4304;53.876;10.662;2023-07-24T00:32:07;3.90;;;1.92;;
8532;SDS011;4304;53.876;10.662;2023-07-24T00:34:33;3.40;;;1.63;;
8532;SDS011;4304;53.876;10.662;2023-07-24T00:36:58;3.35;;;1.40;;
8532;SDS011;4304;53.876;10.662;2023-07-24T00:39:23;5.90;;;2.30;;
8532;SDS011;4304;53.876;10.662;2023-07-24T00:41:49;5.65;;;2.17;;
8532;SDS011;4304;53.876;10.662;2023-07-24T00:44:14;3.35;;;1.58;;
8532;SDS011;4304;53.876;10.662;2023-07-24T00:46:39;2.38;;;1.33;;
8532;SDS011;4304;53.876;10.662;2023-07-24T00:49:05;3.67;;;1.42;;
8532;SDS011;4304;53.876;10.662;2023-07-24T00:51:31;3.30;;;1.50;;
8532;SDS011;4304;53.876;10.662;2023-07-24T00:54:00;4.45;;;1.80;;
8532;SDS011;4304;53.876;10.662;2023-07-24T00:56:27;3.00;;;1.55;;
8532;SDS011;4304;53.876;10.662;2023-07-24T00:58:53;4.10;;;1.73;;
8532;SDS011;4304;53.876;10.662;2023-07-24T01:01:20;4.70;;;2.22;;
8532;SDS011;4304;53.876;10.662;2023-07-24T01:03:46;18.20;;;2.05;;
8532;SDS011;4304;53.876;10.662;2023-07-24T01:06:11;3.25;;;1.60;;
8532;SDS011;4304;53.876;10.662;2023-07-24T01:08:37;4.18;;;1.52;;
8532;SDS011;4304;53.876;10.662;2023-07-24T01:11:36;3.10;;;1.13;;
8532;SDS011;4304;53.876;10.662;2023-07-24T01:16:41;2.92;;;1.33;;
8532;SDS011;4304;53.876;10.662;2023-07-24T01:19:12;4.30;;;1.77;;
8532;SDS011;4304;53.876;10.662;2023-07-24T01:22:01;7.72;;;1.70;;
8532;SDS011;4304;53.876;10.662;2023-07-24T01:24:43;3.20;;;1.42;;
8532;SDS011;4304;53.876;10.662;2023-07-24T01:27:24;4.00;;;2.05;;
8532;SDS011;4304;53.876;10.662;2023-07-24T01:29:49;3.58;;;1.60;;
8532;SDS011;4304;53.876;10.662;2023-07-24T01:32:15;5.28;;;2.10;;
8532;SDS011;4304;53.876;10.662;2023-07-24T01:34:40;3.08;;;1.88;;
8532;SDS011;4304;53.876;10.662;2023-07-24T01:37:05;2.47;;;1.13;;
8532;SDS011;4304;53.876;10.662;2023-07-24T01:39:31;3.47;;;1.63;;
8532;SDS011;4304;53.876;10.662;2023-07-24T01:41:57;4.57;;;1.95;;
8532;SDS011;4304;53.876;10.662;2023-07-24T01:44:23;3.38;;;2.08;;
8532;SDS011;4304;53.876;10.662;2023-07-24T01:46:49;3.33;;;1.88;;
8532;SDS011;4304;53.876;10.662;2023-07-24T01:49:14;4.43;;;1.92;;
8532;SDS011;4304;53.876;10.662;2023-07-24T01:51:39;3.88;;;2.17;;
8532;SDS011;4304;53.876;10.662;2023-07-24T01:54:05;2.80;;;1.60;;
8532;SDS011;4304;53.876;10.662;2023-07-24T01:56:30;4.25;;;1.92;;
8532;SDS011;4304;53.876;10.662;2023-07-24T01:58:55;3.03;;;0.90;;
8532;SDS011;4304;53.876;10.662;2023-07-24T02:01:20;4.53;;;2.03;;
8532;SDS011;4304;53.876;10.662;2023-07-24T02:03:46;3.50;;;1.83;;
8532;SDS011;4304;53.876;10.662;2023-07-24T02:06:11;8.73;;;1.58;;
8532;SDS011;4304;53.876;10.662;2023-07-24T02:08:36;3.95;;;1.77;;
8532;SDS011;4304;53.876;10.662;2023-07-24T02:11:02;4.30;;;1.90;;
8532;SDS011;4304;53.876;10.662;2023-07-24T02:13:27;3.33;;;1.73;;
8532;SDS011;4304;53.876;10.662;2023-07-24T02:15:52;4.00;;;2.20;;
8532;SDS011;4304;53.876;10.662;2023-07-24T02:18:18;3.17;;;1.80;;
8532;SDS011;4304;53.876;10.662;2023-07-24T02:20:50;3.42;;;1.25;;
8532;SDS011;4304;53.876;10.662;2023-07-24T02:23:16;3.95;;;2.03;;
8532;SDS011;4304;53.876;10.662;2023-07-24T02:25:41;5.68;;;2.30;;
8532;SDS011;4304;53.876;10.662;2023-07-24T02:28:08;4.13;;;1.95;;
8532;SDS011;4304;53.876;10.662;2023-07-24T02:30:37;4.30;;;2.53;;
8532;SDS011;4304;53.876;10.662;2023-07-24T02:33:02;6.10;;;2.72;;
8532;SDS011;4304;53.876;10.662;2023-07-24T02:35:28;5.15;;;1.90;;
8532;SDS011;4304;53.876;10.662;2023-07-24T02:37:53;3.60;;;1.77;;
8532;SDS011;4304;53.876;10.662;2023-07-24T02:40:18;6.40;;;3.17;;
8532;SDS011;4304;53.876;10.662;2023-07-24T02:42:44;5.40;;;2.73;;
8532;SDS011;4304;53.876;10.662;2023-07-24T02:45:09;7.17;;;2.73;;
8532;SDS011;4304;53.876;10.662;2023-07-24T02:47:36;5.00;;;2.55;;
8532;SDS011;4304;53.876;10.662;2023-07-24T02:50:01;4.65;;;2.15;;
8532;SDS011;4304;53.876;10.662;2023-07-24T02:52:27;6.97;;;2.22;;
8532;SDS011;4304;53.876;10.662;2023-07-24T02:54:52;4.10;;;2.65;;
8532;SDS011;4304;53.876;10.662;2023-07-24T02:57:17;7.18;;;2.25;;
8532;SDS011;4304;53.876;10.662;2023-07-24T02:59:43;4.90;;;2.47;;
8532;SDS011;4304;53.876;10.662;2023-07-24T03:02:08;3.95;;;2.38;;
8532;SDS011;4304;53.876;10.662;2023-07-24T03:04:33;6.00;;;3.08;;
8532;SDS011;4304;53.876;10.662;2023-07-24T03:06:59;6.28;;;2.13;;
8532;SDS011;4304;53.876;10.662;2023-07-24T03:09:24;5.22;;;2.58;;
8532;SDS011;4304;53.876;10.662;2023-07-24T03:11:49;4.97;;;2.93;;
8532;SDS011;4304;53.876;10.662;2023-07-24T03:14:15;5.72;;;2.47;;
8532;SDS011;4304;53.876;10.662;2023-07-24T03:16:40;4.25;;;2.00;;
8532;SDS011;4304;53.876;10.662;2023-07-24T03:19:05;3.60;;;1.55;;
8532;SDS011;4304;53.876;10.662;2023-07-24T03:21:31;5.18;;;2.40;;
8532;SDS011;4304;53.876;10.662;2023-07-24T03:23:56;4.45;;;2.50;;
8532;SDS011;4304;53.876;10.662;2023-07-24T03:26:21;4.57;;;2.03;;
8532;SDS011;4304;53.876;10.662;2023-07-24T03:28:47;4.93;;;2.63;;
8532;SDS011;4304;53.876;10.662;2023-07-24T03:31:12;4.65;;;2.38;;
8532;SDS011;4304;53.876;10.662;2023-07-24T03:33:37;3.40;;;1.92;;
8532;SDS011;4304;53.876;10.662;2023-07-24T03:36:03;3.58;;;2.13;;
8532;SDS011;4304;53.876;10.662;2023-07-24T03:38:28;5.00;;;2.45;;
8532;SDS011;4304;53.876;10.662;2023-07-24T03:40:54;3.78;;;2.65;;
8532;SDS011;4304;53.876;10.662;2023-07-24T03:43:19;3.90;;;2.20;;
8532;SDS011;4304;53.876;10.662;2023-07-24T03:45:44;6.22;;;3.17;;
8532;SDS011;4304;53.876;10.662;2023-07-24T03:48:10;5.32;;;2.40;;
8532;SDS011;4304;53.876;10.662;2023-07-24T03:50:35;6.28;;;3.00;;
8532;SDS011;4304;53.876;10.662;2023-07-24T03:53:01;5.95;;;3.05;;
8532;SDS011;4304;53.876;10.662;2023-07-24T03:55:26;5.97;;;3.17;;
8532;SDS011;4304;53.876;10.662;2023-07-24T03:57:51;4.45;;;2.47;;
8532;SDS011;4304;53.876;10.662;2023-07-24T04:00:17;4.20;;;3.03;;
8532;SDS011;4304;53.876;10.662;2023-07-24T04:02:43;7.45;;;3.33;;
8532;SDS011;4304;53.876;10.662;2023-07-24T04:05:09;5.45;;;2.55;;
8532;SDS011;4304;53.876;10.662;2023-07-24T04:07:34;10.52;;;2.67;;
8532;SDS011;4304;53.876;10.662;2023-07-24T04:10:00;5.30;;;2.33;;
8532;SDS011;4304;53.876;10.662;2023-07-24T04:12:25;8.07;;;3.28;;
8532;SDS011;4304;53.876;10.662;2023-07-24T04:14:50;6.38;;;2.75;;
8532;SDS011;4304;53.876;10.662;2023-07-24T04:17:16;7.30;;;3.13;;
8532;SDS011;4304;53.876;10.662;2023-07-24T04:19:41;6.40;;;3.63;;
8532;SDS011;4304;53.876;10.662;2023-07-24T04:22:07;4.25;;;2.83;;
8532;SDS011;4304;53.876;10.662;2023-07-24T04:24:32;6.10;;;3.45;;
8532;SDS011;4304;53.876;10.662;2023-07-24T04:26:57;5.18;;;2.63;;
8532;SDS011;4304;53.876;10.662;2023-07-24T04:29:23;5.18;;;2.25;;
8532;SDS011;4304;53.876;10.662;2023-07-24T04:31:50;5.38;;;2.50;;
8532;SDS011;4304;53.876;10.662;2023-07-24T04:34:17;4.95;;;3.22;;
8532;SDS011;4304;53.876;10.662;2023-07-24T04:36:42;5.68;;;3.50;;
8532;SDS011;4304;53.876;10.662;2023-07-24T04:39:08;5.63;;;3.28;;
8532;SDS011;4304;53.876;10.662;2023-07-24T04:41:33;4.68;;;2.05;;
8532;SDS011;4304;53.876;10.662;2023-07-24T04:43:58;7.97;;;3.55;;
8532;SDS011;4304;53.876;10.662;2023-07-24T04:46:24;6.90;;;3.90;;
8532;SDS011;4304;53.876;10.662;2023-07-24T04:48:49;5.37;;;3.07;;
8532;SDS011;4304;53.876;10.662;2023-07-24T04:51:14;6.90;;;3.17;;
8532;SDS011;4304;53.876;10.662;2023-07-24T04:53:40;7.00;;;3.53;;
8532;SDS011;4304;53.876;10.662;2023-07-24T04:56:05;11.07;;;3.67;;
8532;SDS011;4304;53.876;10.662;2023-07-24T04:58:30;3.65;;;1.70;;
8532;SDS011;4304;53.876;10.662;2023-07-24T05:00:56;10.85;;;3.20;;
8532;SDS011;4304;53.876;10.662;2023-07-24T05:03:21;8.18;;;3.85;;
8532;SDS011;4304;53.876;10.662;2023-07-24T05:05:55;7.65;;;2.17;;
8532;SDS011;4304;53.876;10.662;2023-07-24T05:08:21;6.75;;;3.35;;
8532;SDS011;4304;53.876;10.662;2023-07-24T05:10:47;4.93;;;2.50;;
8532;SDS011;4304;53.876;10.662;2023-07-24T05:13:12;6.53;;;2.63;;
8532;SDS011;4304;53.876;10.662;2023-07-24T05:15:38;4.90;;;2.47;;
8532;SDS011;4304;53.876;10.662;2023-07-24T05:18:03;4.83;;;2.57;;
8532;SDS011;4304;53.876;10.662;2023-07-24T05:20:28;3.38;;;2.22;;
8532;SDS011;4304;53.876;10.662;2023-07-24T05:22:54;5.93;;;3.60;;
8532;SDS011;4304;53.876;10.662;2023-07-24T05:25:19;5.90;;;2.80;;
8532;SDS011;4304;53.876;10.662;2023-07-24T05:27:44;5.43;;;3.10;;
8532;SDS011;4304;53.876;10.662;2023-07-24T05:30:10;4.43;;;2.80;;
8532;SDS011;4304;53.876;10.662;2023-07-24T05:32:35;5.20;;;3.00;;
8532;SDS011;4304;53.876;10.662;2023-07-24T05:35:00;5.90;;;3.53;;
8532;SDS011;4304;53.876;10.662;2023-07-24T05:37:26;6.70;;;4.07;;
8532;SDS011;4304;53.876;10.662;2023-07-24T05:39:51;5.47;;;2.93;;
8532;SDS011;4304;53.876;10.662;2023-07-24T05:42:16;4.67;;;3.00;;
8532;SDS011;4304;53.876;10.662;2023-07-24T05:44:42;11.85;;;3.38;;
8532;SDS011;4304;53.876;10.662;2023-07-24T05:47:07;5.68;;;3.00;;
8532;SDS011;4304;53.876;10.662;2023-07-24T05:49:32;6.80;;;3.25;;
8532;SDS011;4304;53.876;10.662;2023-07-24T05:51:58;7.47;;;3.63;;
8532;SDS011;4304;53.876;10.662;2023-07-24T05:54:23;6.55;;;3.92;;
8532;SDS011;4304;53.876;10.662;2023-07-24T05:56:48;8.85;;;3.47;;
8532;SDS011;4304;53.876;10.662;2023-07-24T05:59:14;5.38;;;3.25;;
8532;SDS011;4304;53.876;10.662;2023-07-24T06:01:39;7.07;;;2.67;;
8532;SDS011;4304;53.876;10.662;2023-07-24T06:04:04;5.60;;;2.85;;
8532;SDS011;4304;53.876;10.662;2023-07-24T06:06:32;6.70;;;2.90;;
8532;SDS011;4304;53.876;10.662;2023-07-24T06:08:57;7.22;;;3.53;;
8532;SDS011;4304;53.876;10.662;2023-07-24T06:11:23;4.80;;;2.72;;
8532;SDS011;4304;53.876;10.662;2023-07-24T06:13:48;4.20;;;2.42;;
8532;SDS011;4304;53.876;10.662;2023-07-24T06:16:13;5.53;;;3.25;;
8532;SDS011;4304;53.876;10.662;2023-07-24T06:18:39;5.10;;;3.05;;
8532;SDS011;4304;53.876;10.662;2023-07-24T06:21:04;5.97;;;3.25;;
8532;SDS011;4304;53.876;10.662;2023-07-24T06:23:29;6.38;;;2.75;;
8532;SDS011;4304;53.876;10.662;2023-07-24T06:25:55;5.68;;;2.17;;
8532;SDS011;4304;53.876;10.662;2023-07-24T06:28:20;7.60;;;2.47;;
8532;SDS011;4304;53.876;10.662;2023-07-24T06:30:46;6.30;;;3.30;;
8532;SDS011;4304;53.876;10.662;2023-07-24T06:33:11;5.55;;;3.10;;
8532;SDS011;4304;53.876;10.662;2023-07-24T06:35:36;7.43;;;3.33;;
8532;SDS011;4304;53.876;10.662;2023-07-24T06:38:02;5.43;;;2.90;;
8532;SDS011;4304;53.876;10.662;2023-07-24T06:40:27;5.80;;;2.67;;
8532;SDS011;4304;53.876;10.662;2023-07-24T06:42:53;9.05;;;3.05;;
8532;SDS011;4304;53.876;10.662;2023-07-24T06:45:19;5.00;;;2.95;;
8532;SDS011;4304;53.876;10.662;2023-07-24T06:47:44;3.83;;;2.72;;
8532;SDS011;4304;53.876;10.662;2023-07-24T06:50:09;5.13;;;3.13;;
8532;SDS011;4304;53.876;10.662;2023-07-24T06:52:35;4.50;;;3.08;;
8532;SDS011;4304;53.876;10.662;2023-07-24T06:55:00;5.38;;;3.20;;
8532;SDS011;4304;53.876;10.662;2023-07-24T06:57:25;7.43;;;3.58;;
8532;SDS011;4304;53.876;10.662;2023-07-24T06:59:51;6.05;;;3.35;;
8532;SDS011;4304;53.876;10.662;2023-07-24T07:02:16;5.32;;;2.85;;
8532;SDS011;4304;53.876;10.662;2023-07-24T07:04:41;6.13;;;3.25;;
8532;SDS011;4304;53.876;10.662;2023-07-24T07:07:07;6.28;;;3.25;;
8532;SDS011;4304;53.876;10.662;2023-07-24T07:09:32;7.13;;;2.77;;
8532;SDS011;4304;53.876;10.662;2023-07-24T07:11:57;5.25;;;3.47;;
8532;SDS011;4304;53.876;10.662;2023-07-24T07:14:23;5.03;;;2.90;;
8532;SDS011;4304;53.876;10.662;2023-07-24T07:16:48;7.20;;;2.83;;
8532;SDS011;4304;53.876;10.662;2023-07-24T07:19:14;5.38;;;3.35;;
8532;SDS011;4304;53.876;10.662;2023-07-24T07:21:39;5.85;;;3.22;;
8532;SDS011;4304;53.876;10.662;2023-07-24T07:24:04;7.05;;;3.17;;
8532;SDS011;4304;53.876;10.662;2023-07-24T07:26:30;5.35;;;2.60;;
8532;SDS011;4304;53.876;10.662;2023-07-24T07:28:55;4.20;;;2.47;;
8532;SDS011;4304;53.876;10.662;2023-07-24T07:31:21;4.55;;;2.88;;
8532;SDS011;4304;53.876;10.662;2023-07-24T07:33:46;5.43;;;2.72;;
8532;SDS011;4304;53.876;10.662;2023-07-24T07:36:13;5.93;;;3.45;;
8532;SDS011;4304;53.876;10.662;2023-07-24T07:38:38;6.68;;;2.67;;
8532;SDS011;4304;53.876;10.662;2023-07-24T07:41:05;6.22;;;3.22;;
8532;SDS011;4304;53.876;10.662;2023-07-24T07:43:31;5.20;;;3.30;;
8532;SDS011;4304;53.876;10.662;2023-07-24T07:45:56;8.10;;;2.53;;
8532;SDS011;4304;53.876;10.662;2023-07-24T07:48:22;10.00;;;2.92;;
8532;SDS011;4304;53.876;10.662;2023-07-24T07:50:51;6.47;;;3.42;;
8532;SDS011;4304;53.876;10.662;2023-07-24T07:53:16;5.03;;;2.95;;
8532;SDS011;4304;53.876;10.662;2023-07-24T07:55:42;6.35;;;3.65;;
8532;SDS011;4304;53.876;10.662;2023-07-24T07:58:07;8.45;;;3.53;;
8532;SDS011;4304;53.876;10.662;2023-07-24T08:00:32;5.47;;;2.40;;
8532;SDS011;4304;53.876;10.662;2023-07-24T08:02:58;5.97;;;2.97;;
8532;SDS011;4304;53.876;10.662;2023-07-24T08:05:23;4.75;;;2.30;;
8532;SDS011;4304;53.876;10.662;2023-07-24T08:07:49;4.28;;;2.33;;
8532;SDS011;4304;53.876;10.662;2023-07-24T08:10:14;4.72;;;2.17;;
8532;SDS011;4304;53.876;10.662;2023-07-24T08:12:40;3.88;;;2.47;;
8532;SDS011;4304;53.876;10.662;2023-07-24T08:15:05;4.43;;;2.17;;
8532;SDS011;4304;53.876;10.662;2023-07-24T08:17:31;5.50;;;2.85;;
8532;SDS011;4304;53.876;10.662;2023-07-24T08:19:56;4.17;;;2.47;;
8532;SDS011;4304;53.876;10.662;2023-07-24T08:22:22;4.90;;;2.63;;
8532;SDS011;4304;53.876;10.662;2023-07-24T08:24:47;6.13;;;2.65;;
8532;SDS011;4304;53.876;10.662;2023-07-24T08:27:15;5.38;;;3.08;;
8532;SDS011;4304;53.876;10.662;2023-07-24T08:29:40;6.45;;;3.47;;
8532;SDS011;4304;53.876;10.662;2023-07-24T08:32:06;4.37;;;2.37;;
8532;SDS011;4304;53.876;10.662;2023-07-24T08:34:31;3.75;;;2.47;;
8532;SDS011;4304;53.876;10.662;2023-07-24T08:36:57;12.18;;;3.38;;
8532;SDS011;4304;53.876;10.662;2023-07-24T08:39:22;5.83;;;2.70;;
8532;SDS011;4304;53.876;10.662;2023-07-24T08:41:47;5.30;;;2.72;;
8532;SDS011;4304;53.876;10.662;2023-07-24T08:44:13;5.70;;;3.10;;
8532;SDS011;4304;53.876;10.662;2023-07-24T08:46:38;6.18;;;3.20;;
8532;SDS011;4304;53.876;10.662;2023-07-24T08:49:06;6.50;;;2.45;;
8532;SDS011;4304;53.876;10.662;2023-07-24T08:51:36;5.90;;;3.13;;
8532;SDS011;4304;53.876;10.662;2023-07-24T08:54:02;5.10;;;2.60;;
8532;SDS011;4304;53.876;10.662;2023-07-24T08:56:29;5.85;;;2.85;;
8532;SDS011;4304;53.876;10.662;2023-07-24T08:58:55;5.18;;;2.38;;
8532;SDS011;4304;53.876;10.662;2023-07-24T09:01:20;5.93;;;2.80;;
8532;SDS011;4304;53.876;10.662;2023-07-24T09:03:46;3.75;;;2.28;;
8532;SDS011;4304;53.876;10.662;2023-07-24T09:06:11;5.40;;;2.30;;
8532;SDS011;4304;53.876;10.662;2023-07-24T09:08:37;5.78;;;2.75;;
8532;SDS011;4304;53.876;10.662;2023-07-24T09:11:05;7.28;;;3.50;;
8532;SDS011;4304;53.876;10.662;2023-07-24T09:13:31;7.13;;;3.42;;
8532;SDS011;4304;53.876;10.662;2023-07-24T09:15:57;4.68;;;2.80;;
8532;SDS011;4304;53.876;10.662;2023-07-24T09:18:24;4.95;;;2.65;;
8532;SDS011;4304;53.876;10.662;2023-07-24T09:20:50;6.43;;;3.30;;
8532;SDS011;4304;53.876;10.662;2023-07-24T09:23:15;6.65;;;3.35;;
8532;SDS011;4304;53.876;10.662;2023-07-24T09:25:41;4.97;;;2.67;;
8532;SDS011;4304;53.876;10.662;2023-07-24T09:28:11;6.30;;;3.00;;
8532;SDS011;4304;53.876;10.662;2023-07-24T09:30:38;5.85;;;3.40;;
8532;SDS011;4304;53.876;10.662;2023-07-24T09:33:04;6.80;;;3.10;;
8532;SDS011;4304;53.876;10.662;2023-07-24T09:35:30;4.40;;;2.65;;
8532;SDS011;4304;53.876;10.662;2023-07-24T09:38:06;4.97;;;2.90;;
8532;SDS011;4304;53.876;10.662;2023-07-24T09:45:40;6.15;;;3.25;;
8532;SDS011;4304;53.876;10.662;2023-07-24T09:48:06;6.68;;;3.22;;
8532;SDS011;4304;53.876;10.662;2023-07-24T09:50:36;5.80;;;2.72;;
8532;SDS011;4304;53.876;10.662;2023-07-24T09:53:01;6.30;;;3.42;;
8532;SDS011;4304;53.876;10.662;2023-07-24T09:55:30;4.40;;;2.58;;
8532;SDS011;4304;53.876;10.662;2023-07-24T09:58:02;5.15;;;2.97;;
8532;SDS011;4304;53.876;10.662;2023-07-24T10:00:30;5.65;;;2.85;;
8532;SDS011;4304;53.876;10.662;2023-07-24T10:02:56;5.55;;;3.72;;
8532;SDS011;4304;53.876;10.662;2023-07-24T10:05:21;8.52;;;3.47;;
8532;SDS011;4304;53.876;10.662;2023-07-24T10:07:47;5.18;;;2.53;;
8532;SDS011;4304;53.876;10.662;2023-07-24T10:10:13;5.18;;;2.60;;
8532;SDS011;4304;53.876;10.662;2023-07-24T10:12:38;5.97;;;3.05;;
8532;SDS011;4304;53.876;10.662;2023-07-24T10:15:05;6.88;;;3.05;;
8532;SDS011;4304;53.876;10.662;2023-07-24T10:17:34;5.05;;;2.85;;
8532;SDS011;4304;53.876;10.662;2023-07-24T10:20:07;5.13;;;2.92;;
8532;SDS011;4304;53.876;10.662;2023-07-24T10:22:34;7.00;;;3.50;;
8532;SDS011;4304;53.876;10.662;2023-07-24T10:25:02;5.00;;;3.13;;
8532;SDS011;4304;53.876;10.662;2023-07-24T10:27:28;6.95;;;3.00;;
8532;SDS011;4304;53.876;10.662;2023-07-24T10:30:03;5.40;;;3.22;;
8532;SDS011;4304;53.876;10.662;2023-07-24T10:32:30;5.47;;;2.90;;
8532;SDS011;4304;53.876;10.662;2023-07-24T10:34:56;4.47;;;2.55;;
8532;SDS011;4304;53.876;10.662;2023-07-24T10:37:32;4.95;;;2.78;;
8532;SDS011;4304;53.876;10.662;2023-07-24T10:39:59;3.85;;;2.45;;
8532;SDS011;4304;53.876;10.662;2023-07-24T10:42:25;6.65;;;3.10;;
8532;SDS011;4304;53.876;10.662;2023-07-24T10:45:00;3.65;;;1.92;;
8532;SDS011;4304;53.876;10.662;2023-07-24T10:47:29;4.93;;;2.45;;
8532;SDS011;4304;53.876;10.662;2023-07-24T10:49:54;4.67;;;2.33;;
8532;SDS011;4304;53.876;10.662;2023-07-24T10:52:27;4.65;;;2.22;;
8532;SDS011;4304;53.876;10.662;2023-07-24T10:54:53;4.75;;;2.13;;
8532;SDS011;4304;53.876;10.662;2023-07-24T10:57:24;3.80;;;1.77;;
8532;SDS011;4304;53.876;10.662;2023-07-24T10:59:50;4.55;;;2.05;;
8532;SDS011;4304;53.876;10.662;2023-07-24T11:02:16;4.43;;;1.90;;
8532;SDS011;4304;53.876;10.662;2023-07-24T11:04:42;2.83;;;1.90;;
8532;SDS011;4304;53.876;10.662;2023-07-24T11:07:07;4.22;;;2.30;;
8532;SDS011;4304;53.876;10.662;2023-07-24T11:09:36;6.63;;;2.38;;
8532;SDS011;4304;53.876;10.662;2023-07-24T11:12:17;5.25;;;2.65;;
8532;SDS011;4304;53.876;10.662;2023-07-24T11:14:48;6.47;;;2.67;;
8532;SDS011;4304;53.876;10.662;2023-07-24T11:17:21;5.53;;;2.72;;
8532;SDS011;4304;53.876;10.662;2023-07-24T11:19:47;5.63;;;2.92;;
8532;SDS011;4304;53.876;10.662;2023-07-24T11:22:12;5.72;;;2.92;;
8532;SDS011;4304;53.876;10.662;2023-07-24T11:24:45;5.22;;;2.63;;
8532;SDS011;4304;53.876;10.662;2023-07-24T11:27:15;3.38;;;2.00;;
8532;SDS011;4304;53.876;10.662;2023-07-24T11:29:46;4.03;;;2.67;;
8532;SDS011;4304;53.876;10.662;2023-07-24T11:34:38;5.40;;;2.47;;
8532;SDS011;4304;53.876;10.662;2023-07-24T11:37:04;4.25;;;2.15;;
8532;SDS011;4304;53.876;10.662;2023-07-24T11:39:30;3.65;;;1.88;;
8532;SDS011;4304;53.876;10.662;2023-07-24T11:41:55;3.38;;;2.10;;
8532;SDS011;4304;53.876;10.662;2023-07-24T11:44:24;5.50;;;2.13;;
8532;SDS011;4304;53.876;10.662;2023-07-24T11:46:50;4.35;;;2.17;;
8532;SDS011;4304;53.876;10.662;2023-07-24T11:49:21;5.72;;;3.00;;
8532;SDS011;4304;53.876;10.662;2023-07-24T11:51:47;3.72;;;1.80;;
8532;SDS011;4304;53.876;10.662;2023-07-24T11:54:12;4.90;;;2.42;;
8532;SDS011;4304;53.876;10.662;2023-07-24T11:56:38;7.45;;;2.50;;
8532;SDS011;4304;53.876;10.662;2023-07-24T11:59:10;5.22;;;2.72;;
8532;SDS011;4304;53.876;10.662;2023-07-24T12:01:36;5.90;;;2.78;;
8532;SDS011;4304;53.876;10.662;2023-07-24T12:04:02;3.92;;;2.30;;
8532;SDS011;4304;53.876;10.662;2023-07-24T12:06:30;4.85;;;2.67;;
8532;SDS011;4304;53.876;10.662;2023-07-24T12:09:02;4.80;;;2.33;;
8532;SDS011;4304;53.876;10.662;2023-07-24T12:11:30;5.60;;;2.50;;
8532;SDS011;4304;53.876;10.662;2023-07-24T12:13:55;4.57;;;2.30;;
8532;SDS011;4304;53.876;10.662;2023-07-24T12:16:21;4.97;;;2.17;;
8532;SDS011;4304;53.876;10.662;2023-07-24T12:18:46;4.65;;;2.47;;
8532;SDS011;4304;53.876;10.662;2023-07-24T12:21:11;3.90;;;2.13;;
8532;SDS011;4304;53.876;10.662;2023-07-24T12:23:37;3.83;;;1.95;;
8532;SDS011;4304;53.876;10.662;2023-07-24T12:26:02;3.80;;;1.63;;
8532;SDS011;4304;53.876;10.662;2023-07-24T12:28:27;5.68;;;1.90;;
8532;SDS011;4304;53.876;10.662;2023-07-24T12:30:53;4.32;;;1.83;;
8532;SDS011;4304;53.876;10.662;2023-07-24T12:33:18;3.47;;;2.17;;
8532;SDS011;4304;53.876;10.662;2023-07-24T12:35:48;4.07;;;2.00;;
8532;SDS011;4304;53.876;10.662;2023-07-24T12:38:13;4.07;;;1.90;;
8532;SDS011;4304;53.876;10.662;2023-07-24T12:40:39;4.10;;;1.75;;
8532;SDS011;4304;53.876;10.662;2023-07-24T12:43:04;6.15;;;2.38;;
8532;SDS011;4304;53.876;10.662;2023-07-24T12:45:29;6.47;;;2.33;;
8532;SDS011;4304;53.876;10.662;2023-07-24T12:47:55;4.47;;;2.13;;
8532;SDS011;4304;53.876;10.662;2023-07-24T12:50:20;3.65;;;2.03;;
8532;SDS011;4304;53.876;10.662;2023-07-24T12:52:47;5.95;;;1.88;;
8532;SDS011;4304;53.876;10.662;2023-07-24T12:55:13;3.78;;;1.98;;
8532;SDS011;4304;53.876;10.662;2023-07-24T12:57:38;5.13;;;2.75;;
8532;SDS011;4304;53.876;10.662;2023-07-24T13:00:04;4.55;;;2.70;;
8532;SDS011;4304;53.876;10.662;2023-07-24T13:02:31;3.95;;;2.10;;
8532;SDS011;4304;53.876;10.662;2023-07-24T13:04:57;4.28;;;2.40;;
8532;SDS011;4304;53.876;10.662;2023-07-24T13:07:22;4.63;;;2.17;;
8532;SDS011;4304;53.876;10.662;2023-07-24T13:09:47;4.40;;;2.67;;
8532;SDS011;4304;53.876;10.662;2023-07-24T13:12:13;3.72;;;1.90;;
8532;SDS011;4304;53.876;10.662;2023-07-24T13:14:38;5.53;;;2.08;;
8532;SDS011;4304;53.876;10.662;2023-07-24T13:17:04;4.53;;;2.50;;
8532;SDS011;4304;53.876;10.662;2023-07-24T13:19:29;4.00;;;1.83;;
8532;SDS011;4304;53.876;10.662;2023-07-24T13:21:55;4.40;;;1.83;;
8532;SDS011;4304;53.876;10.662;2023-07-24T13:24:20;4.13;;;1.95;;
8532;SDS011;4304;53.876;10.662;2023-07-24T13:26:46;4.32;;;2.03;;
8532;SDS011;4304;53.876;10.662;2023-07-24T13:29:11;2.92;;;1.45;;
8532;SDS011;4304;53.876;10.662;2023-07-24T13:31:37;3.10;;;1.58;;
8532;SDS011;4304;53.876;10.662;2023-07-24T13:34:02;3.70;;;1.90;;
8532;SDS011;4304;53.876;10.662;2023-07-24T13:36:28;3.60;;;1.67;;
8532;SDS011;4304;53.876;10.662;2023-07-24T13:38:53;4.72;;;2.17;;
8532;SDS011;4304;53.876;10.662;2023-07-24T13:41:19;4.10;;;2.22;;
8532;SDS011;4304;53.876;10.662;2023-07-24T13:43:44;5.47;;;2.63;;
8532;SDS011;4304;53.876;10.662;2023-07-24T13:46:10;5.65;;;2.03;;
8532;SDS011;4304;53.876;10.662;2023-07-24T13:48:35;6.40;;;2.70;;
8532;SDS011;4304;53.876;10.662;2023-07-24T13:51:00;5.15;;;2.22;;
8532;SDS011;4304;53.876;10.662;2023-07-24T13:53:27;4.45;;;2.40;;
8532;SDS011;4304;53.876;10.662;2023-07-24T13:55:52;3.20;;;1.75;;
8532;SDS011;4304;53.876;10.662;2023-07-24T13:58:18;4.93;;;2.45;;
8532;SDS011;4304;53.876;10.662;2023-07-24T14:00:44;4.10;;;1.92;;
8532;SDS011;4304;53.876;10.662;2023-07-24T14:03:10;3.05;;;1.88;;
8532;SDS011;4304;53.876;10.662;2023-07-24T14:05:36;4.97;;;2.10;;
8532;SDS011;4304;53.876;10.662;2023-07-24T14:08:03;4.88;;;2.28;;
8532;SDS011;4304;53.876;10.662;2023-07-24T14:10:29;3.47;;;1.73;;
8532;SDS011;4304;53.876;10.662;2023-07-24T14:12:54;3.90;;;1.67;;
8532;SDS011;4304;53.876;10.662;2023-07-24T14:15:20;4.10;;;2.33;;
8532;SDS011;4304;53.876;10.662;2023-07-24T14:17:46;4.00;;;1.63;;
8532;SDS011;4304;53.876;10.662;2023-07-24T14:20:11;4.80;;;2.20;;
8532;SDS011;4304;53.876;10.662;2023-07-24T14:22:37;4.40;;;2.42;;
8532;SDS011;4304;53.876;10.662;2023-07-24T14:25:02;3.40;;;1.60;;
8532;SDS011;4304;53.876;10.662;2023-07-24T14:27:28;3.10;;;1.40;;
8532;SDS011;4304;53.876;10.662;2023-07-24T14:29:53;3.30;;;1.60;;
8532;SDS011;4304;53.876;10.662;2023-07-24T14:32:18;2.65;;;1.30;;
8532;SDS011;4304;53.876;10.662;2023-07-24T14:34:44;8.07;;;2.00;;
8532;SDS011;4304;53.876;10.662;2023-07-24T14:37:10;4.55;;;1.90;;
8532;SDS011;4304;53.876;10.662;2023-07-24T14:39:35;5.15;;;2.30;;
8532;SDS011;4304;53.876;10.662;2023-07-24T14:42:01;5.10;;;2.10;;
8532;SDS011;4304;53.876;10.662;2023-07-24T14:44:27;2.60;;;1.30;;
8532;SDS011;4304;53.876;10.662;2023-07-24T14:46:52;3.92;;;2.05;;
8532;SDS011;4304;53.876;10.662;2023-07-24T14:49:18;3.65;;;2.28;;
8532;SDS011;4304;53.876;10.662;2023-07-24T14:51:43;4.88;;;2.22;;
8532;SDS011;4304;53.876;10.662;2023-07-24T14:54:08;4.47;;;2.10;;
8532;SDS011;4304;53.876;10.662;2023-07-24T14:56:34;5.38;;;2.63;;
8532;SDS011;4304;53.876;10.662;2023-07-24T14:58:59;5.63;;;2.10;;
8532;SDS011;4304;53.876;10.662;2023-07-24T15:01:25;3.60;;;2.15;;
8532;SDS011;4304;53.876;10.662;2023-07-24T15:03:52;3.88;;;2.08;;